createdAt,value
2023-06-16T00:02:00.659Z,67.60
2023-06-16T00:04:32.737Z,67.70
2023-06-16T00:07:00.034Z,67.90
2023-06-16T00:09:29.314Z,67.80
2023-06-16T00:11:59.603Z,68.00
2023-06-16T00:14:31.694Z,68.00
2023-06-16T00:17:01.944Z,67.90
2023-06-16T00:19:34.139Z,68.10
2023-06-16T00:22:07.543Z,68.00
2023-06-16T00:24:34.913Z,68.10
2023-06-16T00:27:02.147Z,68.10
2023-06-16T00:29:29.379Z,68.10
2023-06-16T00:32:01.140Z,68.20
2023-06-16T00:34:35.633Z,68.30
2023-06-16T00:37:02.857Z,68.40
2023-06-16T00:39:32.267Z,68.20
2023-06-16T00:41:59.415Z,68.40
2023-06-16T00:44:33.437Z,68.30
2023-06-16T00:47:00.896Z,68.50
2023-06-16T00:49:33.158Z,68.40
2023-06-16T00:52:08.243Z,68.50
2023-06-16T00:54:37.614Z,68.80
2023-06-16T00:57:07.988Z,68.60
2023-06-16T00:59:37.826Z,68.80
2023-06-16T01:02:07.232Z,68.80
2023-06-16T01:04:39.465Z,69.00
2023-06-16T01:07:19.400Z,69.10
2023-06-16T01:09:58.996Z,69.20
2023-06-16T01:12:47.211Z,69.30
2023-06-16T01:15:19.781Z,69.50
2023-06-16T01:17:48.077Z,69.20
2023-06-16T01:20:49.385Z,69.30
2023-06-16T01:23:21.900Z,70.30
2023-06-16T01:25:50.744Z,69.50
2023-06-16T01:28:25.456Z,69.60
2023-06-16T01:30:53.575Z,69.90
2023-06-16T01:33:24.108Z,69.80
2023-06-16T01:35:53.581Z,69.80
2023-06-16T01:38:25.119Z,69.90
2023-06-16T01:40:58.450Z,70.00
2023-06-16T01:43:26.372Z,70.00
2023-06-16T01:45:54.888Z,70.10
2023-06-16T01:48:27.559Z,70.20
2023-06-16T01:50:57.509Z,70.30
2023-06-16T01:53:30.086Z,70.40
2023-06-16T01:55:59.757Z,70.20
2023-06-16T01:58:31.044Z,70.10
2023-06-16T02:01:05.431Z,70.20
2023-06-16T02:03:48.232Z,70.40
2023-06-16T02:06:24.562Z,70.60
2023-06-16T02:08:58.603Z,71.00
2023-06-16T02:11:29.429Z,70.60
2023-06-16T02:13:59.442Z,70.80
2023-06-16T02:16:35.848Z,70.80
2023-06-16T02:19:05.351Z,70.90
2023-06-16T02:21:35.389Z,70.90
2023-06-16T02:24:09.643Z,71.20
2023-06-16T02:26:38.578Z,71.30
2023-06-16T02:29:06.400Z,71.40
2023-06-16T02:31:33.629Z,71.50
2023-06-16T02:34:05.224Z,71.40
2023-06-16T02:36:37.824Z,71.50
2023-06-16T02:39:08.067Z,71.70
2023-06-16T02:41:35.996Z,71.60
2023-06-16T02:44:05.534Z,71.70
2023-06-16T02:46:35.279Z,71.70
2023-06-16T02:49:04.789Z,71.80
2023-06-16T02:51:31.941Z,71.80
2023-06-16T02:54:04.003Z,72.00
2023-06-16T02:56:31.225Z,72.10
2023-06-16T02:59:01.069Z,72.10
2023-06-16T03:01:30.820Z,72.20
2023-06-16T03:04:01.810Z,72.30
2023-06-16T03:06:31.925Z,72.30
2023-06-16T03:09:04.357Z,72.50
2023-06-16T03:11:31.659Z,72.60
2023-06-16T03:14:03.179Z,72.50
2023-06-16T03:16:33.764Z,72.90
2023-06-16T03:19:01.072Z,72.70
2023-06-16T03:21:28.327Z,72.70
2023-06-16T03:23:55.611Z,72.90
2023-06-16T03:26:27.432Z,72.70
2023-06-16T03:28:54.603Z,72.70
2023-06-16T03:31:23.791Z,72.70
2023-06-16T03:33:53.135Z,72.90
2023-06-16T03:36:20.442Z,72.80
2023-06-16T03:38:50.097Z,72.90
2023-06-16T03:41:17.269Z,73.00
2023-06-16T03:43:49.895Z,73.10
2023-06-16T03:46:20.143Z,73.10
2023-06-16T03:48:52.110Z,73.00
2023-06-16T03:51:22.116Z,73.20
2023-06-16T03:53:49.273Z,73.10
2023-06-16T03:56:16.450Z,73.10
2023-06-16T03:58:43.613Z,73.10
2023-06-16T04:01:15.477Z,73.60
2023-06-16T04:03:45.231Z,73.80
2023-06-16T04:06:12.418Z,73.60
2023-06-16T04:08:42.033Z,73.50
2023-06-16T04:11:09.160Z,73.40
2023-06-16T04:13:41.103Z,73.40
2023-06-16T04:16:10.782Z,73.60
2023-06-16T04:18:40.110Z,74.10
2023-06-16T04:21:09.725Z,73.80
2023-06-16T04:23:39.392Z,74.20
2023-06-16T04:26:07.480Z,74.40
2023-06-16T04:28:40.199Z,74.30
2023-06-16T04:31:10.625Z,74.20
2023-06-16T04:33:38.149Z,74.30
2023-06-16T04:36:06.049Z,74.30
2023-06-16T04:38:35.609Z,74.70
2023-06-16T04:41:02.821Z,74.60
2023-06-16T04:43:30.138Z,74.60
2023-06-16T04:45:59.997Z,74.80
2023-06-16T04:48:29.299Z,75.30
2023-06-16T04:50:58.952Z,74.90
2023-06-16T04:53:30.523Z,75.40
2023-06-16T04:55:57.702Z,75.30
2023-06-16T04:58:27.312Z,75.30
2023-06-16T05:01:02.106Z,75.80
2023-06-16T05:03:31.701Z,76.10
2023-06-16T05:05:59.348Z,75.50
2023-06-16T05:08:29.028Z,75.30
2023-06-16T05:11:03.069Z,75.40
2023-06-16T05:13:31.493Z,75.20
2023-06-16T05:15:58.666Z,75.20
2023-06-16T05:18:25.973Z,75.40
2023-06-16T05:20:53.509Z,75.70
2023-06-16T05:23:25.677Z,75.70
2023-06-16T05:25:53.988Z,75.90
2023-06-16T05:28:26.435Z,75.80
2023-06-16T05:30:53.609Z,76.10
2023-06-16T05:33:20.856Z,76.00
2023-06-16T05:35:50.547Z,75.80
2023-06-16T05:38:20.702Z,76.00
2023-06-16T05:40:52.817Z,76.10
2023-06-16T05:43:23.208Z,75.90
2023-06-16T05:45:55.216Z,75.90
2023-06-16T05:48:22.397Z,76.00
2023-06-16T05:50:54.139Z,76.70
2023-06-16T05:53:21.276Z,76.30
2023-06-16T05:55:48.516Z,76.40
2023-06-16T05:58:20.461Z,76.50
2023-06-16T06:00:50.104Z,76.70
2023-06-16T06:03:19.958Z,76.60
2023-06-16T06:05:47.355Z,76.70
2023-06-16T06:08:14.605Z,76.70
2023-06-16T06:10:41.846Z,76.60
2023-06-16T06:13:09.017Z,76.80
2023-06-16T06:15:38.453Z,76.70
2023-06-16T06:18:05.718Z,76.70
2023-06-16T06:20:35.653Z,77.00
2023-06-16T06:23:03.786Z,76.90
2023-06-16T06:25:31.526Z,76.90
2023-06-16T06:28:01.410Z,76.70
2023-06-16T06:30:31.026Z,76.80
2023-06-16T06:32:59.163Z,76.90
2023-06-16T06:35:28.573Z,77.00
2023-06-16T06:37:55.903Z,77.00
2023-06-16T06:40:25.743Z,77.00
2023-06-16T06:42:56.645Z,77.40
2023-06-16T06:45:28.835Z,77.40
2023-06-16T06:47:56.703Z,77.30
2023-06-16T06:50:28.787Z,77.40
2023-06-16T06:52:58.408Z,77.30
2023-06-16T06:55:25.568Z,77.30
2023-06-16T06:57:52.940Z,77.30
2023-06-16T07:00:22.392Z,77.30
2023-06-16T07:02:51.928Z,77.30
2023-06-16T07:05:19.237Z,77.30
2023-06-16T07:07:46.644Z,77.30
2023-06-16T07:10:16.449Z,77.50
2023-06-16T07:12:48.449Z,77.30
2023-06-16T07:15:18.205Z,77.20
2023-06-16T07:17:47.667Z,77.10
2023-06-16T07:20:17.689Z,77.10
2023-06-16T07:22:49.351Z,77.10
2023-06-16T07:25:19.066Z,77.20
2023-06-16T07:27:46.392Z,77.40
2023-06-16T07:30:13.842Z,77.40
2023-06-16T07:32:41.066Z,77.30
2023-06-16T07:35:10.449Z,78.00
2023-06-16T07:37:44.973Z,77.50
2023-06-16T07:40:15.386Z,77.40
2023-06-16T07:42:45.483Z,77.40
2023-06-16T07:45:13.887Z,77.30
2023-06-16T07:47:43.637Z,77.40
2023-06-16T07:50:14.850Z,77.30
2023-06-16T07:52:43.105Z,77.30
2023-06-16T07:55:13.342Z,77.40
2023-06-16T07:57:40.764Z,77.50
2023-06-16T08:00:13.906Z,77.70
2023-06-16T08:02:46.162Z,77.60
2023-06-16T08:05:17.872Z,77.50
2023-06-16T08:07:45.306Z,77.60
2023-06-16T08:10:17.610Z,77.50
2023-06-16T08:12:45.321Z,77.50
2023-06-16T08:15:16.451Z,77.50
2023-06-16T08:17:44.651Z,77.50
2023-06-16T08:20:14.570Z,77.60
2023-06-16T08:22:41.905Z,77.40
2023-06-16T08:25:14.484Z,77.40
2023-06-16T08:27:44.236Z,77.20
2023-06-16T08:30:16.979Z,77.20
2023-06-16T08:32:47.078Z,77.30
2023-06-16T08:35:16.573Z,77.00
2023-06-16T08:37:43.786Z,76.80
2023-06-16T08:40:12.935Z,76.70
2023-06-16T08:42:44.532Z,76.90
2023-06-16T08:45:14.971Z,76.90
2023-06-16T08:47:44.010Z,76.90
2023-06-16T08:50:20.652Z,76.90
2023-06-16T08:52:54.139Z,77.00
2023-06-16T08:55:24.958Z,77.20
2023-06-16T08:57:54.026Z,77.40
2023-06-16T09:00:25.976Z,77.30
2023-06-16T09:02:58.630Z,77.40
2023-06-16T09:05:28.601Z,77.40
2023-06-16T09:07:58.570Z,77.70
2023-06-16T09:10:26.472Z,77.80
2023-06-16T09:12:57.016Z,77.80
2023-06-16T09:15:24.286Z,77.80
2023-06-16T09:17:53.790Z,77.20
2023-06-16T09:20:25.063Z,77.00
2023-06-16T09:23:02.140Z,77.00
2023-06-16T09:25:34.131Z,76.80
2023-06-16T09:28:10.737Z,76.60
2023-06-16T09:30:40.933Z,77.40
2023-06-16T09:33:13.197Z,76.60
2023-06-16T09:35:46.560Z,76.70
2023-06-16T09:38:18.544Z,76.70
2023-06-16T09:40:49.204Z,76.90
2023-06-16T09:43:18.858Z,77.00
2023-06-16T09:45:46.132Z,77.10
2023-06-16T09:48:15.815Z,76.90
2023-06-16T09:50:43.078Z,76.80
2023-06-16T09:53:15.936Z,76.90
2023-06-16T09:55:45.073Z,76.80
2023-06-16T09:58:12.226Z,76.50
2023-06-16T10:00:41.861Z,76.60
2023-06-16T10:03:13.908Z,76.10
2023-06-16T10:05:43.212Z,76.20
2023-06-16T10:08:11.760Z,76.10
2023-06-16T10:10:44.587Z,76.20
2023-06-16T10:13:14.772Z,75.90
2023-06-16T10:15:45.044Z,75.60
2023-06-16T10:18:18.008Z,75.60
2023-06-16T10:20:47.580Z,75.60
2023-06-16T10:23:15.097Z,75.10
2023-06-16T10:25:48.442Z,75.10
2023-06-16T10:28:16.109Z,74.70
2023-06-16T10:30:44.952Z,74.90
2023-06-16T10:33:23.781Z,75.10
2023-06-16T10:36:11.454Z,75.30
2023-06-16T10:38:43.648Z,75.30
2023-06-16T10:41:16.099Z,75.40
2023-06-16T10:43:50.624Z,75.40
2023-06-16T10:46:22.317Z,74.50
2023-06-16T10:49:09.173Z,74.60
2023-06-16T10:51:49.926Z,74.20
2023-06-16T10:54:37.676Z,73.90
2023-06-16T10:59:54.805Z,72.70
2023-06-16T11:02:35.034Z,72.00
2023-06-16T11:05:08.809Z,72.20
2023-06-16T11:07:39.658Z,72.50
2023-06-16T11:10:16.728Z,72.80
2023-06-16T11:12:45.161Z,73.00
2023-06-16T11:15:12.703Z,73.50
2023-06-16T11:17:41.259Z,72.30
2023-06-16T11:20:15.666Z,72.70
2023-06-16T11:22:45.471Z,73.10
2023-06-16T11:25:14.113Z,73.10
2023-06-16T11:27:41.614Z,73.00
2023-06-16T11:30:11.278Z,73.10
2023-06-16T11:32:39.291Z,73.20
2023-06-16T11:35:10.406Z,73.30
2023-06-16T11:37:47.033Z,72.30
2023-06-16T11:40:22.522Z,72.70
2023-06-16T11:43:17.309Z,73.00
2023-06-16T11:45:48.614Z,72.50
2023-06-16T11:48:20.405Z,73.20
2023-06-16T11:50:47.663Z,71.70
2023-06-16T11:53:17.548Z,71.10
2023-06-16T11:55:55.002Z,72.20
2023-06-16T11:58:28.087Z,70.80
2023-06-16T12:01:01.536Z,71.30
2023-06-16T12:03:41.308Z,71.60
2023-06-16T12:06:16.424Z,71.50
2023-06-16T12:08:56.720Z,72.20
2023-06-16T12:11:34.166Z,72.30
2023-06-16T12:14:01.738Z,72.60
2023-06-16T12:16:28.906Z,72.90
2023-06-16T12:18:57.888Z,72.90
2023-06-16T12:21:27.886Z,72.70
2023-06-16T12:24:10.575Z,71.70
2023-06-16T12:26:42.029Z,71.20
2023-06-16T12:29:16.539Z,71.90
2023-06-16T12:31:54.614Z,71.50
2023-06-16T12:34:34.114Z,70.60
2023-06-16T12:37:04.969Z,71.20
2023-06-16T12:39:37.373Z,71.10
2023-06-16T12:42:05.927Z,71.10
2023-06-16T12:44:50.003Z,71.60
2023-06-16T12:47:21.812Z,71.90
2023-06-16T12:49:55.265Z,71.90
2023-06-16T12:52:23.696Z,71.60
2023-06-16T12:54:57.379Z,72.10
2023-06-16T12:57:28.865Z,72.10
2023-06-16T12:59:56.316Z,71.20
2023-06-16T13:02:26.167Z,71.30
2023-06-16T13:04:53.417Z,71.80
2023-06-16T13:07:25.902Z,71.50
2023-06-16T13:09:55.476Z,71.40
2023-06-16T13:12:22.640Z,70.10
2023-06-16T13:14:52.336Z,71.10
2023-06-16T13:17:22.613Z,70.30
2023-06-16T13:19:49.767Z,70.50
2023-06-16T13:22:19.131Z,69.80
2023-06-16T13:24:46.361Z,69.90
2023-06-16T13:27:18.156Z,69.90
2023-06-16T13:29:45.379Z,69.50
2023-06-16T13:32:12.581Z,68.60
2023-06-16T13:34:41.990Z,69.60
2023-06-16T13:37:15.316Z,69.40
2023-06-16T13:39:42.671Z,69.60
2023-06-16T13:42:12.389Z,69.90
2023-06-16T13:44:45.943Z,70.00
2023-06-16T13:47:15.673Z,70.10
2023-06-16T13:49:48.830Z,69.90
2023-06-16T13:52:16.072Z,70.00
2023-06-16T13:54:43.254Z,69.70
2023-06-16T13:57:10.875Z,69.80
2023-06-16T13:59:38.121Z,69.20
2023-06-16T14:02:05.870Z,69.60
2023-06-16T14:04:33.531Z,68.50
2023-06-16T14:07:03.275Z,69.50
2023-06-16T14:09:36.309Z,68.50
2023-06-16T14:12:03.668Z,68.90
2023-06-16T14:14:33.905Z,69.60
2023-06-16T14:17:03.771Z,69.40
2023-06-16T14:19:35.447Z,69.60
2023-06-16T14:22:03.847Z,69.80
2023-06-16T14:24:33.560Z,69.80
2023-06-16T14:27:00.846Z,68.20
2023-06-16T14:29:30.651Z,68.90
2023-06-16T14:32:01.844Z,68.40
2023-06-16T14:34:30.582Z,68.00
2023-06-16T14:36:58.039Z,67.60
2023-06-16T14:39:27.566Z,68.10
2023-06-16T14:42:00.258Z,68.70
2023-06-16T14:44:27.510Z,68.50
2023-06-16T14:46:57.164Z,67.80
2023-06-16T14:49:27.399Z,68.10
2023-06-16T14:51:54.555Z,68.20
2023-06-16T14:54:22.458Z,68.20
2023-06-16T14:56:54.888Z,67.90
2023-06-16T14:59:27.629Z,66.20
2023-06-16T15:01:55.135Z,66.80
2023-06-16T15:04:27.612Z,66.00
2023-06-16T15:06:58.119Z,66.10
2023-06-16T15:09:26.392Z,65.30
2023-06-16T15:11:53.538Z,64.40
2023-06-16T15:14:22.872Z,65.70
2023-06-16T15:16:52.240Z,66.10
2023-06-16T15:19:24.639Z,66.80
2023-06-16T15:21:57.060Z,67.00
2023-06-16T15:24:26.976Z,66.70
2023-06-16T15:26:54.163Z,67.50
2023-06-16T15:29:21.349Z,67.70
2023-06-16T15:31:51.798Z,65.40
2023-06-16T15:34:21.463Z,65.40
2023-06-16T15:36:51.041Z,65.60
2023-06-16T15:39:25.911Z,65.00
2023-06-16T15:41:53.727Z,64.90
2023-06-16T15:44:23.191Z,65.30
2023-06-16T15:46:52.921Z,65.60
2023-06-16T15:49:20.161Z,64.50
2023-06-16T15:51:49.853Z,64.30
2023-06-16T15:54:19.479Z,65.10
2023-06-16T15:56:49.128Z,65.20
2023-06-16T15:59:20.788Z,65.30
2023-06-16T16:01:48.093Z,65.00
2023-06-16T16:04:15.569Z,65.40
2023-06-16T16:06:44.900Z,65.40
2023-06-16T16:09:12.051Z,65.70
2023-06-16T16:11:42.646Z,64.80
2023-06-16T16:14:11.873Z,65.20
2023-06-16T16:16:46.213Z,65.30
2023-06-16T16:19:13.490Z,64.00
2023-06-16T16:21:40.867Z,65.00
2023-06-16T16:24:10.924Z,63.70
2023-06-16T16:26:40.232Z,64.20
2023-06-16T16:29:19.346Z,63.80
2023-06-16T16:31:51.292Z,64.30
2023-06-16T16:34:18.420Z,64.40
2023-06-16T16:36:47.865Z,64.00
2023-06-16T16:39:15.163Z,64.30
2023-06-16T16:41:44.853Z,63.00
2023-06-16T16:44:12.057Z,64.00
2023-06-16T16:46:39.417Z,64.30
2023-06-16T16:49:10.762Z,63.90
2023-06-16T16:51:40.053Z,63.30
2023-06-16T16:54:07.212Z,63.70
2023-06-16T16:56:36.603Z,64.00
2023-06-16T16:59:03.902Z,63.50
2023-06-16T17:01:31.207Z,63.80
2023-06-16T17:03:58.435Z,63.60
2023-06-16T17:06:28.021Z,63.70
2023-06-16T17:08:57.685Z,63.20
2023-06-16T17:11:29.434Z,63.40
2023-06-16T17:13:59.164Z,63.40
2023-06-16T17:16:26.459Z,63.70
2023-06-16T17:18:53.817Z,63.30
2023-06-16T17:21:26.342Z,62.60
2023-06-16T17:23:53.609Z,63.00
2023-06-16T17:26:20.794Z,62.00
2023-06-16T17:28:50.029Z,62.30
2023-06-16T17:31:19.847Z,62.20
2023-06-16T17:33:49.436Z,60.80
2023-06-16T17:36:19.774Z,61.70
2023-06-16T17:38:48.359Z,61.60
2023-06-16T17:41:18.879Z,61.20
2023-06-16T17:43:46.576Z,61.40
2023-06-16T17:46:16.650Z,61.50
2023-06-16T17:48:43.917Z,61.80
2023-06-16T17:51:13.206Z,62.00
2023-06-16T17:53:42.980Z,61.70
2023-06-16T17:56:12.471Z,61.60
2023-06-16T17:58:43.319Z,61.90
2023-06-16T18:01:13.045Z,62.00
2023-06-16T18:03:40.500Z,61.90
2023-06-16T18:06:07.606Z,61.90
2023-06-16T18:08:37.219Z,62.10
2023-06-16T18:11:04.414Z,62.20
2023-06-16T18:13:31.684Z,62.40
2023-06-16T18:15:58.860Z,62.30
2023-06-16T18:18:28.644Z,62.00
2023-06-16T18:20:58.808Z,62.20
2023-06-16T18:23:34.284Z,62.20
2023-06-16T18:26:01.482Z,62.20
2023-06-16T18:28:28.628Z,62.00
2023-06-16T18:31:03.454Z,61.80
2023-06-16T18:33:31.365Z,62.10
2023-06-16T18:36:00.933Z,62.20
2023-06-16T18:38:28.162Z,62.10
2023-06-16T18:41:02.255Z,62.20
2023-06-16T18:43:39.638Z,62.10
2023-06-16T18:46:06.881Z,62.30
2023-06-16T18:48:34.106Z,62.30
2023-06-16T18:51:01.278Z,62.20
2023-06-16T18:53:28.450Z,62.20
2023-06-16T18:55:59.985Z,62.20
2023-06-16T18:58:29.488Z,62.30
2023-06-16T19:01:01.713Z,62.30
2023-06-16T19:03:31.514Z,62.50
2023-06-16T19:05:59.149Z,62.60
2023-06-16T19:08:26.778Z,62.70
2023-06-16T19:10:56.209Z,62.80
2023-06-16T19:13:28.282Z,62.80
2023-06-16T19:15:57.677Z,62.70
2023-06-16T19:18:25.270Z,62.60
2023-06-16T19:20:57.170Z,62.80
2023-06-16T19:23:27.658Z,62.90
2023-06-16T19:26:02.019Z,62.80
2023-06-16T19:28:45.411Z,62.70
2023-06-16T19:31:14.616Z,62.70
2023-06-16T19:33:44.364Z,62.70
2023-06-16T19:36:13.765Z,62.60
2023-06-16T19:38:40.988Z,62.60
2023-06-16T19:41:14.417Z,62.60
2023-06-16T19:43:43.918Z,62.50
2023-06-16T19:46:15.949Z,62.60
2023-06-16T19:48:43.173Z,62.70
2023-06-16T19:51:10.421Z,62.70
2023-06-16T19:53:37.823Z,62.50
2023-06-16T19:56:05.163Z,62.60
2023-06-16T19:58:34.577Z,62.50
2023-06-16T20:01:04.294Z,62.40
2023-06-16T20:03:36.617Z,62.50
2023-06-16T20:06:08.151Z,62.40
2023-06-16T20:08:38.366Z,62.50
2023-06-16T20:11:10.547Z,62.60
2023-06-16T20:13:46.654Z,62.40
2023-06-16T20:16:18.659Z,62.40
2023-06-16T20:18:50.172Z,62.50
2023-06-16T20:21:19.462Z,62.50
2023-06-16T20:23:48.626Z,62.60
2023-06-16T20:26:16.878Z,62.50
2023-06-16T20:28:44.023Z,62.60
2023-06-16T20:31:13.641Z,62.60
2023-06-16T20:33:43.248Z,62.60
2023-06-16T20:36:10.746Z,62.80
2023-06-16T20:38:39.346Z,62.80
2023-06-16T20:41:09.209Z,62.90
2023-06-16T20:43:36.410Z,62.80
2023-06-16T20:46:06.079Z,62.80
2023-06-16T20:48:35.727Z,63.00
2023-06-16T20:51:05.134Z,63.10
2023-06-16T20:53:35.400Z,63.00
2023-06-16T20:56:05.339Z,63.50
2023-06-16T20:58:38.349Z,63.20
2023-06-16T21:01:09.374Z,63.30
2023-06-16T21:03:38.836Z,63.20
2023-06-16T21:06:08.440Z,63.70
2023-06-16T21:08:39.946Z,63.40
2023-06-16T21:11:07.490Z,63.40
2023-06-16T21:13:34.640Z,63.50
2023-06-16T21:16:12.878Z,63.50
2023-06-16T21:18:42.214Z,63.60
2023-06-16T21:21:09.382Z,63.70
2023-06-16T21:23:36.582Z,63.80
2023-06-16T21:26:03.804Z,63.90
2023-06-16T21:28:33.407Z,63.90
2023-06-16T21:31:00.730Z,64.80
2023-06-16T21:33:27.857Z,64.00
2023-06-16T21:35:57.303Z,64.00
2023-06-16T21:38:30.793Z,64.10
2023-06-16T21:40:58.539Z,64.20
2023-06-16T21:43:30.836Z,64.20
2023-06-16T21:45:58.139Z,64.30
2023-06-16T21:48:25.465Z,64.40
2023-06-16T21:50:52.560Z,65.50
2023-06-16T21:53:19.796Z,64.60
2023-06-16T21:55:46.961Z,64.60
2023-06-16T21:58:18.446Z,64.70
2023-06-16T22:00:46.116Z,64.60
2023-06-16T22:03:16.067Z,64.70
2023-06-16T22:05:45.363Z,64.80
2023-06-16T22:08:27.085Z,64.90
2023-06-16T22:11:01.452Z,65.00
2023-06-16T22:13:29.206Z,64.90
2023-06-16T22:15:59.087Z,64.80
2023-06-16T22:18:28.564Z,64.80
2023-06-16T22:20:55.924Z,65.00
2023-06-16T22:23:23.092Z,65.10
2023-06-16T22:25:53.422Z,64.90
2023-06-16T22:28:23.534Z,64.80
2023-06-16T22:30:53.870Z,64.80
2023-06-16T22:33:22.331Z,64.80
2023-06-16T22:35:51.589Z,65.00
2023-06-16T22:38:18.755Z,65.10
2023-06-16T22:40:45.988Z,65.10
2023-06-16T22:43:13.136Z,65.30
2023-06-16T22:45:42.530Z,65.10
2023-06-16T22:48:12.962Z,65.30
2023-06-16T22:50:40.133Z,65.20
2023-06-16T22:53:09.668Z,65.10
2023-06-16T22:55:39.272Z,65.40
2023-06-16T22:58:08.889Z,65.40
2023-06-16T23:00:38.756Z,65.40
2023-06-16T23:03:08.625Z,65.20
2023-06-16T23:05:35.893Z,65.30
2023-06-16T23:08:08.620Z,65.20
2023-06-16T23:10:38.290Z,65.20
2023-06-16T23:13:05.586Z,65.20
2023-06-16T23:15:37.332Z,65.30
2023-06-16T23:18:04.555Z,65.40
2023-06-16T23:20:37.814Z,65.50
2023-06-16T23:23:10.690Z,65.50
2023-06-16T23:25:42.706Z,65.50
2023-06-16T23:28:14.420Z,65.60
2023-06-16T23:30:42.669Z,65.60
2023-06-16T23:33:18.653Z,65.60
2023-06-16T23:35:46.416Z,65.90
2023-06-16T23:38:16.504Z,65.80
2023-06-16T23:40:48.960Z,65.80
2023-06-16T23:43:23.193Z,65.90
2023-06-16T23:45:50.761Z,66.00
2023-06-16T23:48:23.359Z,65.70
2023-06-16T23:50:50.538Z,65.90
2023-06-16T23:53:22.028Z,66.00
2023-06-16T23:55:52.015Z,65.70
2023-06-16T23:58:19.158Z,65.90
